Time,TemperatureF,DewpointF,PressureIn,WindDirection,WindDirectionDegrees,WindSpeedMPH,WindSpeedGustMPH,Humidity,HourlyPrecipIn,Conditions,Clouds,dailyrainin,SoftwareType,DateUTC
2013-02-21 00:01:00,37.8,35.6,30.10,SSE,168,0.0,0.0,92,0.00,,,0.00,meteohub,2013-02-21 06:01:00,
2013-02-21 00:06:00,37.4,35.2,30.10,SSE,168,0.0,0.0,92,0.00,,,0.00,meteohub,2013-02-21 06:06:00,
2013-02-21 00:11:00,37.4,35.6,30.10,SSE,168,0.0,0.0,93,0.00,,,0.00,meteohub,2013-02-21 06:11:00,
2013-02-21 00:16:00,37.4,35.6,30.09,SSE,168,0.0,0.0,93,0.00,,,0.00,meteohub,2013-02-21 06:16:00,
2013-02-21 00:21:00,37.4,35.6,30.10,SSE,168,0.0,0.0,93,0.00,,,0.00,meteohub,2013-02-21 06:21:00,
2013-02-21 00:26:00,37.4,35.6,30.10,SSE,168,0.0,0.0,93,0.00,,,0.00,meteohub,2013-02-21 06:26:00,
2013-02-21 00:31:00,37.2,35.4,30.10,SSE,168,0.0,1.0,93,0.00,,,0.00,meteohub,2013-02-21 06:31:00,
2013-02-21 00:36:00,37.2,35.4,30.09,SSE,168,0.0,1.0,93,0.00,,,0.00,meteohub,2013-02-21 06:36:00,
2013-02-21 00:41:00,37.2,35.4,30.09,SSE,168,0.0,1.0,93,0.00,,,0.00,meteohub,2013-02-21 06:41:00,
2013-02-21 00:46:00,37.2,35.1,30.10,SSE,168,0.0,0.0,92,0.00,,,0.00,meteohub,2013-02-21 06:46:00,
2013-02-21 00:51:00,37.0,35.2,30.10,SSE,168,0.0,0.0,93,0.00,,,0.00,meteohub,2013-02-21 06:51:00,
2013-02-21 00:56:00,37.0,34.9,30.10,SSE,168,0.0,0.0,92,0.00,,,0.00,meteohub,2013-02-21 06:56:00,
2013-02-21 01:01:00,37.0,34.9,30.10,SSE,168,0.0,0.0,92,0.00,,,0.00,meteohub,2013-02-21 07:01:00,
2013-02-21 01:06:00,36.9,34.7,30.11,SSE,168,0.0,0.0,92,0.00,,,0.00,meteohub,2013-02-21 07:06:00,
2013-02-21 01:11:00,36.9,35.1,30.11,SSE,168,0.0,0.0,93,0.00,,,0.00,meteohub,2013-02-21 07:11:00,
2013-02-21 01:16:00,36.9,35.1,30.11,SSE,168,0.0,0.0,93,0.00,,,0.00,meteohub,2013-02-21 07:16:00,
2013-02-21 01:21:00,36.7,34.9,30.10,SSE,168,0.0,0.0,93,0.00,,,0.00,meteohub,2013-02-21 07:21:00,
2013-02-21 01:26:00,36.7,34.9,30.10,SSE,168,0.0,0.0,93,0.00,,,0.00,meteohub,2013-02-21 07:26:00,
2013-02-21 01:31:00,36.9,35.2,30.09,SSE,168,0.0,0.0,94,0.00,,,0.00,meteohub,2013-02-21 07:31:00,
2013-02-21 01:36:00,37.0,35.4,30.09,SSE,168,0.0,0.0,94,0.00,,,0.00,meteohub,2013-02-21 07:36:00,
2013-02-21 01:41:00,36.9,35.1,30.09,SSE,168,0.0,0.0,93,0.00,,,0.00,meteohub,2013-02-21 07:41:00,
2013-02-21 01:46:00,36.9,35.1,30.09,SSE,168,0.0,0.0,93,0.00,,,0.00,meteohub,2013-02-21 07:46:00,
2013-02-21 01:51:00,36.9,35.1,30.09,SSE,168,0.0,0.0,93,0.00,,,0.00,meteohub,2013-02-21 07:51:00,
2013-02-21 01:56:00,36.9,35.1,30.09,SSE,168,0.0,0.0,93,0.00,,,0.00,meteohub,2013-02-21 07:56:00,
2013-02-21 02:01:00,36.9,35.1,30.09,SSE,168,0.0,0.0,93,0.00,,,0.00,meteohub,2013-02-21 08:01:00,
2013-02-21 02:06:00,36.7,34.9,30.09,SSE,168,0.0,0.0,93,0.00,,,0.00,meteohub,2013-02-21 08:06:00,
2013-02-21 02:11:00,36.7,34.9,30.08,SSE,168,0.0,0.0,93,0.00,,,0.00,meteohub,2013-02-21 08:11:00,
2013-02-21 02:16:00,36.7,34.9,30.08,SSE,168,0.0,0.0,93,0.00,,,0.00,meteohub,2013-02-21 08:16:00,
2013-02-21 02:21:00,36.7,34.9,30.08,SSE,168,0.0,0.0,93,0.00,,,0.00,meteohub,2013-02-21 08:21:00,
2013-02-21 02:26:00,36.7,34.9,30.08,SSE,168,0.0,0.0,93,0.00,,,0.00,meteohub,2013-02-21 08:26:00,
2013-02-21 02:31:00,36.7,35.1,30.07,SSE,168,0.0,0.0,94,0.00,,,0.00,meteohub,2013-02-21 08:31:00,
2013-02-21 02:36:00,36.9,35.1,30.07,SSE,168,0.0,0.0,93,0.00,,,0.00,meteohub,2013-02-21 08:36:00,
2013-02-21 02:41:00,36.9,35.1,30.06,SSE,168,0.0,0.0,93,0.00,,,0.00,meteohub,2013-02-21 08:41:00,
2013-02-21 02:46:00,37.0,35.4,30.06,SSE,168,0.0,0.0,94,0.00,,,0.00,meteohub,2013-02-21 08:46:00,
2013-02-21 02:51:00,37.0,35.4,30.06,SSE,168,0.0,0.0,94,0.00,,,0.00,meteohub,2013-02-21 08:51:00,
2013-02-21 02:56:00,37.2,35.4,30.06,SSE,151,0.0,0.0,93,0.00,,,0.00,meteohub,2013-02-21 08:56:00,
2013-02-21 03:01:00,37.2,35.1,30.06,SSE,151,0.0,1.0,92,0.00,,,0.00,meteohub,2013-02-21 09:01:00,
2013-02-21 03:06:00,37.6,35.2,30.06,SSE,151,0.0,1.0,91,0.00,,,0.00,meteohub,2013-02-21 09:06:00,
2013-02-21 03:11:00,37.6,35.2,30.05,SSE,151,0.0,0.0,91,0.00,,,0.00,meteohub,2013-02-21 09:11:00,
2013-02-21 03:16:00,37.6,34.9,30.05,SSE,151,0.0,0.0,90,0.00,,,0.00,meteohub,2013-02-21 09:16:00,
2013-02-21 03:21:00,37.8,34.9,30.05,SSE,151,0.0,0.0,89,0.00,,,0.00,meteohub,2013-02-21 09:21:00,
2013-02-21 03:26:00,37.9,35.1,30.05,SSE,149,0.0,1.0,89,0.00,,,0.00,meteohub,2013-02-21 09:26:00,
2013-02-21 03:31:00,38.5,34.3,30.06,South,189,0.0,2.0,85,0.00,,,0.00,meteohub,2013-02-21 09:31:00,
2013-02-21 03:36:00,39.0,34.5,30.06,South,190,0.0,2.0,84,0.00,,,0.00,meteohub,2013-02-21 09:36:00,
2013-02-21 03:42:00,39.2,34.7,30.05,South,190,0.0,2.0,84,0.00,,,0.00,meteohub,2013-02-21 09:42:00,
2013-02-21 03:47:00,39.4,35.6,30.05,South,190,0.0,1.0,86,0.00,,,0.00,meteohub,2013-02-21 09:47:00,
2013-02-21 03:52:00,39.4,35.6,30.05,South,190,0.0,1.0,86,0.00,,,0.00,meteohub,2013-02-21 09:52:00,
2013-02-21 03:57:00,39.4,35.6,30.05,South,190,0.0,0.0,86,0.00,,,0.00,meteohub,2013-02-21 09:57:00,
2013-02-21 04:02:00,39.2,35.4,30.05,South,190,0.0,0.0,86,0.00,,,0.00,meteohub,2013-02-21 10:02:00,
2013-02-21 04:07:00,39.0,34.5,30.05,South,190,0.0,0.0,84,0.00,,,0.00,meteohub,2013-02-21 10:07:00,
2013-02-21 04:12:00,39.2,34.5,30.05,South,190,0.0,0.0,83,0.00,,,0.00,meteohub,2013-02-21 10:12:00,
2013-02-21 04:17:00,39.4,34.9,30.06,South,190,0.0,0.0,84,0.00,,,0.00,meteohub,2013-02-21 10:17:00,
2013-02-21 04:22:00,39.6,35.1,30.06,South,184,0.0,0.0,84,0.00,,,0.00,meteohub,2013-02-21 10:22:00,
2013-02-21 04:27:00,39.6,35.1,30.06,South,184,0.0,1.0,84,0.00,,,0.00,meteohub,2013-02-21 10:27:00,
2013-02-21 04:32:00,39.7,34.7,30.06,South,181,0.0,1.0,82,0.00,,,0.00,meteohub,2013-02-21 10:32:00,
2013-02-21 04:37:00,40.3,34.3,30.06,ESE,119,1.0,1.0,79,0.00,,,0.00,meteohub,2013-02-21 10:37:00,
2013-02-21 04:42:00,40.8,34.9,30.06,ESE,103,0.0,2.0,79,0.00,,,0.00,meteohub,2013-02-21 10:42:00,
2013-02-21 04:47:00,41.0,34.3,30.06,East,94,0.0,2.0,77,0.00,,,0.00,meteohub,2013-02-21 10:47:00,
2013-02-21 04:52:00,41.5,34.2,30.06,East,90,0.0,5.0,75,0.00,,,0.00,meteohub,2013-02-21 10:52:00,
2013-02-21 04:57:00,41.9,34.2,30.06,East,87,0.0,5.0,74,0.00,,,0.00,meteohub,2013-02-21 10:57:00,
2013-02-21 05:02:00,42.4,33.6,30.07,ESE,115,2.0,5.0,71,0.00,,,0.00,meteohub,2013-02-21 11:02:00,
2013-02-21 05:07:00,43.0,34.2,30.07,SE,134,0.0,3.0,71,0.00,,,0.00,meteohub,2013-02-21 11:07:00,
2013-02-21 05:12:00,43.0,34.9,30.07,ESE,114,1.0,3.0,73,0.00,,,0.00,meteohub,2013-02-21 11:12:00,
2013-02-21 05:17:00,42.8,34.7,30.07,East,101,0.0,3.0,73,0.00,,,0.00,meteohub,2013-02-21 11:17:00,
2013-02-21 05:22:00,43.3,34.2,30.07,NE,44,1.0,3.0,70,0.00,,,0.00,meteohub,2013-02-21 11:22:00,
2013-02-21 05:27:00,44.2,34.3,30.06,NE,42,0.0,4.0,68,0.00,,,0.00,meteohub,2013-02-21 11:27:00,
2013-02-21 05:32:00,44.8,34.5,30.08,SSW,210,0.0,5.0,67,0.00,,,0.00,meteohub,2013-02-21 11:32:00,
2013-02-21 05:37:00,45.1,34.2,30.07,ENE,61,0.0,5.0,65,0.00,,,0.00,meteohub,2013-02-21 11:37:00,
2013-02-21 05:42:00,45.3,34.7,30.08,ENE,61,0.0,5.0,66,0.00,,,0.00,meteohub,2013-02-21 11:42:00,
2013-02-21 05:47:00,45.7,35.1,30.09,ENE,65,0.0,3.0,66,0.00,,,0.00,meteohub,2013-02-21 11:47:00,
2013-02-21 05:52:00,45.9,34.3,30.09,ENE,65,0.0,3.0,64,0.00,,,0.00,meteohub,2013-02-21 11:52:00,
2013-02-21 05:57:00,46.0,36.5,30.09,ENE,65,0.0,1.0,69,0.00,,,0.00,meteohub,2013-02-21 11:57:00,
2013-02-21 06:02:00,46.0,37.2,30.09,ENE,65,0.0,0.0,71,0.00,,,0.00,meteohub,2013-02-21 12:02:00,
2013-02-21 06:07:00,45.9,36.7,30.09,ENE,65,0.0,0.0,70,0.00,,,0.00,meteohub,2013-02-21 12:07:00,
2013-02-21 06:12:00,45.9,37.0,30.09,ENE,65,0.0,0.0,71,0.00,,,0.00,meteohub,2013-02-21 12:12:00,
2013-02-21 06:17:00,45.9,36.3,30.09,ENE,65,0.0,0.0,69,0.00,,,0.00,meteohub,2013-02-21 12:17:00,
2013-02-21 06:22:00,45.9,36.0,30.09,ENE,69,0.0,0.0,68,0.00,,,0.00,meteohub,2013-02-21 12:22:00,
2013-02-21 06:27:00,46.0,35.8,30.10,ENE,57,0.0,1.0,67,0.00,,,0.00,meteohub,2013-02-21 12:27:00,
2013-02-21 06:32:00,46.2,35.4,30.10,ENE,64,1.0,1.0,66,0.00,,,0.00,meteohub,2013-02-21 12:32:00,
2013-02-21 06:37:00,46.8,35.2,30.09,ESE,121,3.0,3.0,64,0.00,,,0.00,meteohub,2013-02-21 12:37:00,
2013-02-21 06:42:00,46.9,34.5,30.09,East,85,0.0,3.0,62,0.00,,,0.00,meteohub,2013-02-21 12:42:00,
2013-02-21 06:47:00,47.1,34.3,30.09,ESE,108,0.0,3.0,61,0.00,,,0.00,meteohub,2013-02-21 12:47:00,
2013-02-21 06:52:00,47.5,34.3,30.10,ESE,108,0.0,3.0,60,0.00,,,0.00,meteohub,2013-02-21 12:52:00,
2013-02-21 06:57:00,47.7,34.0,30.10,SE,127,1.0,3.0,59,0.00,,,0.00,meteohub,2013-02-21 12:57:00,
2013-02-21 07:02:00,48.0,34.0,30.10,East,85,0.0,4.0,58,0.00,,,0.00,meteohub,2013-02-21 13:02:00,
2013-02-21 07:07:00,48.4,34.3,30.10,SSW,202,1.0,7.0,58,0.00,,,0.00,meteohub,2013-02-21 13:07:00,
2013-02-21 07:12:00,48.6,34.0,30.10,ENE,61,0.0,7.0,57,0.00,,,0.00,meteohub,2013-02-21 13:12:00,
2013-02-21 07:17:00,48.7,33.8,30.10,ENE,67,1.0,7.0,56,0.00,,,0.00,meteohub,2013-02-21 13:17:00,
2013-02-21 07:22:00,48.9,34.3,30.10,SSE,164,2.0,7.0,57,0.00,,,0.00,meteohub,2013-02-21 13:22:00,
2013-02-21 07:27:00,48.9,34.3,30.10,East,98,2.0,7.0,57,0.00,,,0.00,meteohub,2013-02-21 13:27:00,
2013-02-21 07:32:00,48.9,34.3,30.10,ESE,122,0.0,8.0,57,0.00,,,0.00,meteohub,2013-02-21 13:32:00,
2013-02-21 07:37:00,48.9,34.9,30.10,NNW,347,2.0,11.0,58,0.00,,,0.00,meteohub,2013-02-21 13:37:00,
2013-02-21 07:42:00,49.1,34.9,30.09,NNE,29,1.0,11.0,58,0.00,,,0.00,meteohub,2013-02-21 13:42:00,
2013-02-21 07:47:00,49.1,34.9,30.09,East,97,0.0,8.0,58,0.00,,,0.00,meteohub,2013-02-21 13:47:00,
2013-02-21 07:52:00,49.3,35.6,30.10,ESE,102,2.0,8.0,59,0.00,,,0.00,meteohub,2013-02-21 13:52:00,
2013-02-21 07:57:00,49.5,35.8,30.10,ESE,116,3.0,7.0,59,0.00,,,0.00,meteohub,2013-02-21 13:57:00,
2013-02-21 08:02:00,49.6,36.3,30.10,ESE,110,2.0,6.0,60,0.00,,,0.00,meteohub,2013-02-21 14:02:00,
2013-02-21 08:07:00,49.6,36.3,30.10,NW,325,0.0,5.0,60,0.00,,,0.00,meteohub,2013-02-21 14:07:00,
2013-02-21 08:12:00,49.6,36.7,30.11,SE,138,0.0,5.0,61,0.00,,,0.00,meteohub,2013-02-21 14:12:00,
2013-02-21 08:17:00,49.8,36.5,30.11,East,83,3.0,4.0,60,0.00,,,0.00,meteohub,2013-02-21 14:17:00,
2013-02-21 08:22:00,50.2,37.2,30.12,North,10,0.0,5.0,61,0.00,,,0.00,meteohub,2013-02-21 14:22:00,
2013-02-21 08:27:00,50.4,37.0,30.12,ESE,116,2.0,5.0,60,0.00,,,0.00,meteohub,2013-02-21 14:27:00,
2013-02-21 08:32:00,50.5,37.6,30.12,ENE,76,1.0,4.0,61,0.00,,,0.00,meteohub,2013-02-21 14:32:00,
2013-02-21 08:37:00,50.9,38.3,30.12,NE,43,2.0,3.0,62,0.00,,,0.00,meteohub,2013-02-21 14:37:00,
2013-02-21 08:42:00,51.3,38.3,30.12,NNE,13,0.0,3.0,61,0.00,,,0.00,meteohub,2013-02-21 14:42:00,
2013-02-21 08:47:00,51.6,38.1,30.12,North,5,0.0,7.0,60,0.00,,,0.00,meteohub,2013-02-21 14:47:00,
2013-02-21 08:52:00,52.0,38.5,30.12,NNW,336,2.0,7.0,60,0.00,,,0.00,meteohub,2013-02-21 14:52:00,
2013-02-21 08:57:00,52.2,38.3,30.12,ENE,76,1.0,7.0,59,0.00,,,0.00,meteohub,2013-02-21 14:57:00,
2013-02-21 09:02:00,52.3,38.5,30.12,SSW,193,0.0,3.0,59,0.00,,,0.00,meteohub,2013-02-21 15:02:00,
2013-02-21 09:07:00,52.5,38.1,30.12,ENE,75,0.0,5.0,58,0.00,,,0.00,meteohub,2013-02-21 15:07:00,
2013-02-21 09:12:00,53.1,38.7,30.12,NNW,338,0.0,5.0,58,0.00,,,0.00,meteohub,2013-02-21 15:12:00,
2013-02-21 09:17:00,53.4,38.1,30.13,East,83,5.0,5.0,56,0.00,,,0.00,meteohub,2013-02-21 15:17:00,
2013-02-21 09:22:00,54.0,38.7,30.13,SSW,193,0.0,5.0,56,0.00,,,0.00,meteohub,2013-02-21 15:22:00,
2013-02-21 09:27:00,54.5,38.1,30.12,NE,47,0.0,5.0,54,0.00,,,0.00,meteohub,2013-02-21 15:27:00,
2013-02-21 09:32:00,55.2,38.8,30.12,ESE,123,0.0,6.0,54,0.00,,,0.00,meteohub,2013-02-21 15:32:00,
2013-02-21 09:37:00,56.1,37.8,30.12,SE,144,1.0,6.0,50,0.00,,,0.00,meteohub,2013-02-21 15:37:00,
2013-02-21 09:42:00,55.9,38.5,30.12,South,173,2.0,8.0,52,0.00,,,0.00,meteohub,2013-02-21 15:42:00,
2013-02-21 09:47:00,56.5,38.7,30.12,SSE,152,3.0,8.0,51,0.00,,,0.00,meteohub,2013-02-21 15:47:00,
2013-02-21 09:52:00,56.8,38.5,30.12,ENE,57,3.0,8.0,50,0.00,,,0.00,meteohub,2013-02-21 15:52:00,
2013-02-21 09:57:00,56.8,38.5,30.12,NE,34,2.0,10.0,50,0.00,,,0.00,meteohub,2013-02-21 15:57:00,
2013-02-21 10:02:00,57.6,38.5,30.12,East,83,3.0,10.0,49,0.00,,,0.00,meteohub,2013-02-21 16:02:00,
2013-02-21 10:07:00,57.6,38.5,30.12,ENE,70,1.0,10.0,49,0.00,,,0.00,meteohub,2013-02-21 16:07:00,
2013-02-21 10:12:00,57.9,38.8,30.12,NE,35,0.0,9.0,49,0.00,,,0.00,meteohub,2013-02-21 16:12:00,
2013-02-21 10:17:00,58.3,39.2,30.12,ENE,69,0.0,9.0,49,0.00,,,0.00,meteohub,2013-02-21 16:17:00,
2013-02-21 10:22:00,58.5,39.4,30.11,NE,53,1.0,7.0,49,0.00,,,0.00,meteohub,2013-02-21 16:22:00,
2013-02-21 10:27:00,58.3,39.2,30.11,SE,142,3.0,8.0,49,0.00,,,0.00,meteohub,2013-02-21 16:27:00,
2013-02-21 10:32:00,57.9,39.4,30.10,SE,140,6.0,10.0,50,0.00,,,0.00,meteohub,2013-02-21 16:32:00,
2013-02-21 10:37:00,58.3,39.7,30.10,SSE,167,2.0,10.0,50,0.00,,,0.00,meteohub,2013-02-21 16:37:00,
2013-02-21 10:42:00,58.6,39.6,30.10,SE,138,2.0,10.0,49,0.00,,,0.00,meteohub,2013-02-21 16:42:00,
2013-02-21 10:47:00,59.4,39.7,30.09,South,185,2.0,12.0,48,0.00,,,0.00,meteohub,2013-02-21 16:47:00,
2013-02-21 10:52:00,59.9,40.1,30.09,SSE,150,2.0,12.0,48,0.00,,,0.00,meteohub,2013-02-21 16:52:00,
2013-02-21 10:57:00,60.1,40.3,30.08,SE,131,3.0,12.0,48,0.00,,,0.00,meteohub,2013-02-21 16:57:00,
2013-02-21 11:02:00,59.7,39.9,30.07,SSE,150,2.0,10.0,48,0.00,,,0.00,meteohub,2013-02-21 17:02:00,
2013-02-21 11:07:00,59.9,40.6,30.07,SE,129,4.0,12.0,49,0.00,,,0.00,meteohub,2013-02-21 17:07:00,
2013-02-21 11:12:00,59.9,41.2,30.07,SSE,159,1.0,14.0,50,0.00,,,0.00,meteohub,2013-02-21 17:12:00,
2013-02-21 11:17:00,60.3,41.0,30.07,East,91,7.0,14.0,49,0.00,,,0.00,meteohub,2013-02-21 17:17:00,
2013-02-21 11:22:00,60.4,41.7,30.07,South,172,5.0,14.0,50,0.00,,,0.00,meteohub,2013-02-21 17:22:00,
2013-02-21 11:27:00,60.6,42.4,30.07,SSE,160,2.0,12.0,51,0.00,,,0.00,meteohub,2013-02-21 17:27:00,
2013-02-21 11:32:00,60.6,43.0,30.06,SE,137,1.0,14.0,52,0.00,,,0.00,meteohub,2013-02-21 17:32:00,
2013-02-21 11:37:00,60.8,44.1,30.05,East,81,2.0,14.0,54,0.00,,,0.00,meteohub,2013-02-21 17:37:00,
2013-02-21 11:42:00,61.2,44.8,30.06,SSE,163,3.0,14.0,55,0.00,,,0.00,meteohub,2013-02-21 17:42:00,
2013-02-21 11:47:00,61.5,45.1,30.05,South,180,2.0,10.0,55,0.00,,,0.00,meteohub,2013-02-21 17:47:00,
2013-02-21 11:52:00,61.3,45.5,30.05,South,191,2.0,10.0,56,0.00,,,0.00,meteohub,2013-02-21 17:52:00,
2013-02-21 11:58:00,61.5,45.1,30.05,South,179,3.0,10.0,55,0.00,,,0.00,meteohub,2013-02-21 17:58:00,
2013-02-21 12:03:00,61.7,45.3,30.05,ESE,118,4.0,11.0,55,0.00,,,0.00,meteohub,2013-02-21 18:03:00,
2013-02-21 12:08:00,61.3,45.5,30.04,SSE,152,4.0,15.0,56,0.00,,,0.00,meteohub,2013-02-21 18:08:00,
2013-02-21 12:13:00,61.5,45.7,30.04,SE,138,2.0,15.0,56,0.00,,,0.00,meteohub,2013-02-21 18:13:00,
2013-02-21 12:18:00,61.5,46.2,30.04,ESE,115,3.0,15.0,57,0.00,,,0.00,meteohub,2013-02-21 18:18:00,
2013-02-21 12:23:00,61.7,46.4,30.04,SE,125,6.0,11.0,57,0.00,,,0.00,meteohub,2013-02-21 18:23:00,
2013-02-21 12:28:00,61.5,46.6,30.04,SE,138,1.0,12.0,58,0.00,,,0.00,meteohub,2013-02-21 18:28:00,
2013-02-21 12:33:00,61.7,46.8,30.03,SSE,167,4.0,12.0,58,0.00,,,0.00,meteohub,2013-02-21 18:33:00,
2013-02-21 12:38:00,61.9,47.5,30.03,South,169,7.0,15.0,59,0.00,,,0.00,meteohub,2013-02-21 18:38:00,
2013-02-21 12:43:00,62.1,47.5,30.02,SSE,154,4.0,15.0,59,0.00,,,0.00,meteohub,2013-02-21 18:43:00,
2013-02-21 12:48:00,61.9,47.8,30.02,SSE,163,4.0,15.0,60,0.00,,,0.00,meteohub,2013-02-21 18:48:00,
2013-02-21 12:53:00,61.9,48.2,30.02,East,90,2.0,13.0,61,0.00,,,0.00,meteohub,2013-02-21 18:53:00,
2013-02-21 12:58:00,61.7,48.6,30.02,ESE,112,3.0,14.0,62,0.00,,,0.00,meteohub,2013-02-21 18:58:00,
2013-02-21 13:03:00,61.7,48.6,30.02,SSE,152,7.0,14.0,62,0.00,,,0.00,meteohub,2013-02-21 19:03:00,
2013-02-21 13:08:00,61.5,48.7,30.02,South,173,2.0,14.0,63,0.00,,,0.00,meteohub,2013-02-21 19:08:00,
2013-02-21 13:13:00,61.3,49.1,30.01,ESE,122,2.0,10.0,64,0.00,,,0.00,meteohub,2013-02-21 19:13:00,
2013-02-21 13:18:00,61.3,49.5,30.01,SE,128,4.0,12.0,65,0.00,,,0.00,meteohub,2013-02-21 19:18:00,
2013-02-21 13:23:00,61.3,49.8,30.01,ESE,122,10.0,12.0,66,0.00,,,0.00,meteohub,2013-02-21 19:23:00,
2013-02-21 13:28:00,61.2,50.2,30.01,SE,142,1.0,14.0,67,0.00,,,0.00,meteohub,2013-02-21 19:28:00,
2013-02-21 13:33:00,61.2,50.5,30.01,SSE,158,6.0,14.0,68,0.00,,,0.00,meteohub,2013-02-21 19:33:00,
2013-02-21 13:38:00,61.3,51.1,30.01,ESE,121,9.0,14.0,69,0.00,,,0.00,meteohub,2013-02-21 19:38:00,
2013-02-21 13:43:00,61.7,51.4,30.01,SSE,163,5.0,12.0,69,0.00,,,0.00,meteohub,2013-02-21 19:43:00,
2013-02-21 13:48:00,62.2,52.0,30.00,SSE,155,7.0,12.0,69,0.00,,,0.00,meteohub,2013-02-21 19:48:00,
2013-02-21 13:53:00,62.8,52.9,30.00,ESE,123,9.0,13.0,70,0.00,,,0.00,meteohub,2013-02-21 19:53:00,
2013-02-21 13:58:00,63.1,53.2,29.99,SE,146,8.0,13.0,70,0.00,,,0.00,meteohub,2013-02-21 19:58:00,
2013-02-21 14:03:00,63.3,53.8,29.99,SSW,194,4.0,13.0,71,0.00,,,0.00,meteohub,2013-02-21 20:03:00,
2013-02-21 14:08:00,63.7,54.1,29.99,SW,219,1.0,12.0,71,0.00,,,0.00,meteohub,2013-02-21 20:08:00,
2013-02-21 14:13:00,63.9,54.3,29.99,South,177,3.0,12.0,71,0.00,,,0.00,meteohub,2013-02-21 20:13:00,
2013-02-21 14:18:00,64.0,54.9,30.00,East,101,8.0,12.0,72,0.00,,,0.00,meteohub,2013-02-21 20:18:00,
2013-02-21 14:23:00,63.9,55.0,30.00,ESE,113,7.0,12.0,73,0.00,,,0.00,meteohub,2013-02-21 20:23:00,
2013-02-21 14:28:00,63.9,55.4,30.00,ESE,104,8.0,14.0,74,0.00,,,0.00,meteohub,2013-02-21 20:28:00,
2013-02-21 14:33:00,64.2,56.1,29.99,SSE,150,6.0,14.0,75,0.00,,,0.00,meteohub,2013-02-21 20:33:00,
2013-02-21 14:38:00,64.0,55.9,29.99,SSE,155,0.0,14.0,75,0.00,,,0.00,meteohub,2013-02-21 20:38:00,
2013-02-21 14:43:00,64.4,56.7,29.99,ESE,109,5.0,11.0,76,0.00,,,0.00,meteohub,2013-02-21 20:43:00,
2013-02-21 14:48:00,64.2,56.8,29.99,SSW,205,5.0,16.0,77,0.00,,,0.00,meteohub,2013-02-21 20:48:00,
2013-02-21 14:53:00,64.2,57.2,29.99,East,94,6.0,16.0,78,0.00,,,0.00,meteohub,2013-02-21 20:53:00,
2013-02-21 14:58:00,64.4,57.7,29.99,SE,140,11.0,16.0,79,0.00,,,0.00,meteohub,2013-02-21 20:58:00,
2013-02-21 15:03:00,64.6,57.9,29.99,ESE,121,1.0,12.0,79,0.00,,,0.00,meteohub,2013-02-21 21:03:00,
2013-02-21 15:08:00,64.8,58.5,29.98,SE,130,6.0,12.0,80,0.00,,,0.00,meteohub,2013-02-21 21:08:00,
2013-02-21 15:13:00,64.8,58.5,29.97,SE,142,5.0,11.0,80,0.00,,,0.00,meteohub,2013-02-21 21:13:00,
2013-02-21 15:18:00,64.4,58.5,29.97,SSE,152,5.0,10.0,81,0.00,,,0.00,meteohub,2013-02-21 21:18:00,
2013-02-21 15:23:00,64.0,58.1,29.97,SE,131,6.0,10.0,81,0.00,,,0.00,meteohub,2013-02-21 21:23:00,
2013-02-21 15:28:00,64.2,58.6,29.97,East,84,5.0,13.0,82,0.00,,,0.00,meteohub,2013-02-21 21:28:00,
2013-02-21 15:33:00,64.0,58.5,29.97,SSE,159,1.0,13.0,82,0.00,,,0.00,meteohub,2013-02-21 21:33:00,
2013-02-21 15:38:00,64.0,58.5,29.98,SE,137,8.0,12.0,82,0.00,,,0.00,meteohub,2013-02-21 21:38:00,
2013-02-21 15:43:00,64.0,58.8,29.98,SE,136,2.0,12.0,83,0.00,,,0.00,meteohub,2013-02-21 21:43:00,
2013-02-21 15:48:00,64.2,59.0,29.97,SE,128,9.0,11.0,83,0.00,,,0.00,meteohub,2013-02-21 21:48:00,
2013-02-21 15:53:00,64.0,58.8,29.97,East,92,2.0,11.0,83,0.00,,,0.00,meteohub,2013-02-21 21:53:00,
2013-02-21 15:58:00,64.0,59.2,29.97,SSE,149,3.0,15.0,84,0.00,,,0.00,meteohub,2013-02-21 21:58:00,
2013-02-21 16:03:00,64.0,59.4,29.96,SSE,156,2.0,15.0,85,0.00,,,0.00,meteohub,2013-02-21 22:03:00,
2013-02-21 16:08:00,64.2,59.5,29.96,SSW,194,0.0,15.0,85,0.00,,,0.00,meteohub,2013-02-21 22:08:00,
2013-02-21 16:13:00,64.2,59.5,29.96,SE,128,2.0,13.0,85,0.00,,,0.00,meteohub,2013-02-21 22:13:00,
2013-02-21 16:18:00,64.0,59.7,29.96,ESE,117,3.0,13.0,86,0.00,,,0.00,meteohub,2013-02-21 22:18:00,
2013-02-21 16:23:00,64.0,59.7,29.96,East,100,0.0,12.0,86,0.00,,,0.00,meteohub,2013-02-21 22:23:00,
2013-02-21 16:28:00,64.0,60.1,29.95,SSE,147,3.0,12.0,87,0.00,,,0.00,meteohub,2013-02-21 22:28:00,
2013-02-21 16:33:00,64.0,60.1,29.96,SE,132,2.0,8.0,87,0.00,,,0.00,meteohub,2013-02-21 22:33:00,
2013-02-21 16:38:00,64.0,60.1,29.95,SSE,155,0.0,9.0,87,0.00,,,0.00,meteohub,2013-02-21 22:38:00,
2013-02-21 16:43:00,64.0,60.4,29.95,SSE,160,1.0,9.0,88,0.00,,,0.00,meteohub,2013-02-21 22:43:00,
2013-02-21 16:48:00,64.0,60.4,29.94,SE,133,5.0,10.0,88,0.00,,,0.00,meteohub,2013-02-21 22:48:00,
2013-02-21 16:53:00,63.9,60.6,29.95,SSE,149,2.0,10.0,89,0.00,,,0.00,meteohub,2013-02-21 22:53:00,
2013-02-21 16:58:00,63.9,60.6,29.94,ESE,123,4.0,14.0,89,0.00,,,0.00,meteohub,2013-02-21 22:58:00,
2013-02-21 17:03:00,63.7,60.4,29.95,ESE,103,5.0,14.0,89,0.00,,,0.00,meteohub,2013-02-21 23:03:00,
2013-02-21 17:08:00,63.7,60.6,29.95,ESE,118,3.0,11.0,90,0.00,,,0.00,meteohub,2013-02-21 23:08:00,
2013-02-21 17:13:00,63.5,60.4,29.95,SE,138,2.0,10.0,90,0.00,,,0.00,meteohub,2013-02-21 23:13:00,
2013-02-21 17:18:00,63.3,60.3,29.95,ESE,113,7.0,10.0,90,0.00,,,0.00,meteohub,2013-02-21 23:18:00,
2013-02-21 17:23:00,63.1,60.4,29.95,South,169,2.0,14.0,91,0.00,,,0.00,meteohub,2013-02-21 23:23:00,
2013-02-21 17:28:00,63.1,60.4,29.95,SE,136,4.0,14.0,91,0.00,,,0.00,meteohub,2013-02-21 23:28:00,
2013-02-21 17:33:00,63.0,60.3,29.96,SE,135,3.0,11.0,91,0.00,,,0.00,meteohub,2013-02-21 23:33:00,
2013-02-21 17:38:00,63.0,60.6,29.96,SSE,161,1.0,10.0,92,0.00,,,0.00,meteohub,2013-02-21 23:38:00,
2013-02-21 17:43:00,62.8,60.4,29.96,ESE,121,3.0,8.0,92,0.00,,,0.00,meteohub,2013-02-21 23:43:00,
2013-02-21 17:48:00,62.8,60.4,29.96,SE,129,3.0,10.0,92,0.00,,,0.00,meteohub,2013-02-21 23:48:00,
2013-02-21 17:53:00,62.6,60.3,29.95,East,98,2.0,10.0,92,0.00,,,0.00,meteohub,2013-02-21 23:53:00,
2013-02-21 17:58:00,62.4,60.4,29.95,ESE,113,4.0,10.0,93,0.00,,,0.00,meteohub,2013-02-21 23:58:00,
2013-02-21 18:03:00,62.4,60.4,29.95,ESE,122,3.0,10.0,93,0.00,,,0.00,meteohub,2013-02-22 00:03:00,
2013-02-21 18:08:00,62.4,60.4,29.95,ESE,122,4.0,10.0,93,0.00,,,0.00,meteohub,2013-02-22 00:08:00,
2013-02-21 18:13:00,62.4,60.4,29.95,SE,142,7.0,10.0,93,0.00,,,0.00,meteohub,2013-02-22 00:13:00,
2013-02-21 18:19:00,62.4,60.4,29.95,SSE,166,0.0,10.0,93,0.00,,,0.00,meteohub,2013-02-22 00:19:00,
2013-02-21 18:24:00,62.4,60.4,29.95,SSE,156,6.0,10.0,93,0.00,,,0.00,meteohub,2013-02-22 00:24:00,
2013-02-21 18:29:00,62.4,60.4,29.95,SSE,168,1.0,10.0,93,0.00,,,0.00,meteohub,2013-02-22 00:29:00,
2013-02-21 18:34:00,62.4,60.4,29.95,ESE,119,11.0,11.0,93,0.00,,,0.00,meteohub,2013-02-22 00:34:00,
2013-02-21 18:39:00,62.4,60.4,29.95,SSE,152,3.0,11.0,93,0.00,,,0.00,meteohub,2013-02-22 00:39:00,
2013-02-21 18:44:00,62.4,60.4,29.95,ESE,108,5.0,11.0,93,0.00,,,0.00,meteohub,2013-02-22 00:44:00,
2013-02-21 18:49:00,62.4,60.6,29.96,East,100,3.0,11.0,94,0.00,,,0.00,meteohub,2013-02-22 00:49:00,
2013-02-21 18:54:00,62.8,61.0,29.96,ESE,115,3.0,9.0,94,0.00,,,0.00,meteohub,2013-02-22 00:54:00,
2013-02-21 18:59:00,62.8,61.0,29.96,SSE,159,0.0,10.0,94,0.00,,,0.00,meteohub,2013-02-22 00:59:00,
2013-02-21 19:04:00,63.0,61.2,29.96,SE,139,1.0,10.0,94,0.00,,,0.00,meteohub,2013-02-22 01:04:00,
2013-02-21 19:09:00,63.0,61.2,29.96,SSW,204,2.0,10.0,94,0.00,,,0.00,meteohub,2013-02-22 01:09:00,
2013-02-21 19:14:00,63.1,61.3,29.97,East,94,3.0,9.0,94,0.00,,,0.00,meteohub,2013-02-22 01:14:00,
2013-02-21 19:19:00,63.1,61.3,29.96,ESE,117,4.0,8.0,94,0.00,,,0.00,meteohub,2013-02-22 01:19:00,
2013-02-21 19:24:00,63.3,61.5,29.97,SE,136,1.0,8.0,94,0.00,,,0.00,meteohub,2013-02-22 01:24:00,
2013-02-21 19:29:00,63.3,61.5,29.97,ESE,119,1.0,8.0,94,0.00,,,0.00,meteohub,2013-02-22 01:29:00,
2013-02-21 19:34:00,63.3,61.5,29.97,SE,146,1.0,8.0,94,0.00,,,0.00,meteohub,2013-02-22 01:34:00,
2013-02-21 19:39:00,63.3,61.5,29.97,ESE,111,2.0,8.0,94,0.00,,,0.00,meteohub,2013-02-22 01:39:00,
2013-02-21 19:44:00,63.3,61.5,29.97,SE,128,1.0,7.0,94,0.00,,,0.00,meteohub,2013-02-22 01:44:00,
2013-02-21 19:49:00,63.3,61.5,29.97,South,169,3.0,7.0,94,0.00,,,0.00,meteohub,2013-02-22 01:49:00,
2013-02-21 19:54:00,63.3,61.5,29.97,ESE,119,3.0,9.0,94,0.00,,,0.00,meteohub,2013-02-22 01:54:00,
2013-02-21 19:59:00,63.3,61.5,29.98,SE,132,2.0,9.0,94,0.00,,,0.00,meteohub,2013-02-22 01:59:00,
2013-02-21 20:04:00,63.3,61.9,29.98,SE,145,0.0,9.0,95,0.00,,,0.00,meteohub,2013-02-22 02:04:00,
2013-02-21 20:09:00,63.3,61.5,29.98,SSE,151,3.0,7.0,94,0.00,,,0.00,meteohub,2013-02-22 02:09:00,
2013-02-21 20:14:00,63.3,61.9,29.97,ESE,111,0.0,7.0,95,0.00,,,0.00,meteohub,2013-02-22 02:14:00,
2013-02-21 20:19:00,63.3,61.9,29.98,East,87,1.0,7.0,95,0.00,,,0.00,meteohub,2013-02-22 02:19:00,
2013-02-21 20:24:00,63.3,61.9,29.98,SE,142,4.0,7.0,95,0.00,,,0.00,meteohub,2013-02-22 02:24:00,
2013-02-21 20:29:00,63.3,61.9,29.98,SSE,159,4.0,7.0,95,0.00,,,0.00,meteohub,2013-02-22 02:29:00,
2013-02-21 20:34:00,63.3,61.9,29.98,ESE,106,3.0,8.0,95,0.00,,,0.00,meteohub,2013-02-22 02:34:00,
2013-02-21 20:39:00,63.5,62.1,29.98,ESE,123,1.0,8.0,95,0.00,,,0.00,meteohub,2013-02-22 02:39:00,
2013-02-21 20:44:00,63.7,62.2,29.98,SSE,148,0.0,8.0,95,0.00,,,0.00,meteohub,2013-02-22 02:44:00,
2013-02-21 20:49:00,63.9,62.4,29.98,SSE,147,1.0,8.0,95,0.00,,,0.00,meteohub,2013-02-22 02:49:00,
2013-02-21 20:54:00,63.9,62.4,29.98,SE,142,3.0,8.0,95,0.00,,,0.00,meteohub,2013-02-22 02:54:00,
2013-02-21 20:59:00,63.9,62.4,29.97,South,173,3.0,8.0,95,0.00,,,0.00,meteohub,2013-02-22 02:59:00,
2013-02-21 21:04:00,64.0,62.6,29.97,SE,146,3.0,8.0,95,0.00,,,0.00,meteohub,2013-02-22 03:04:00,
2013-02-21 21:09:00,64.0,62.6,29.98,SSE,153,0.0,10.0,95,0.00,,,0.00,meteohub,2013-02-22 03:09:00,
2013-02-21 21:14:00,64.0,62.6,29.97,SE,130,4.0,10.0,95,0.00,,,0.00,meteohub,2013-02-22 03:14:00,
2013-02-21 21:19:00,64.0,62.6,29.97,East,92,1.0,9.0,95,0.00,,,0.00,meteohub,2013-02-22 03:19:00,
2013-02-21 21:24:00,64.0,62.6,29.96,SE,138,1.0,9.0,95,0.00,,,0.00,meteohub,2013-02-22 03:24:00,
2013-02-21 21:29:00,64.0,62.6,29.96,SE,138,6.0,11.0,95,0.00,,,0.00,meteohub,2013-02-22 03:29:00,
2013-02-21 21:34:00,64.2,62.8,29.96,SSE,163,4.0,11.0,95,0.00,,,0.00,meteohub,2013-02-22 03:34:00,
2013-02-21 21:39:00,64.2,63.1,29.96,South,169,3.0,11.0,96,0.00,,,0.00,meteohub,2013-02-22 03:39:00,
2013-02-21 21:44:00,64.2,62.8,29.96,SE,136,1.0,11.0,95,0.00,,,0.00,meteohub,2013-02-22 03:44:00,
2013-02-21 21:49:00,64.2,62.8,29.96,ESE,123,3.0,10.0,95,0.00,,,0.00,meteohub,2013-02-22 03:49:00,
2013-02-21 21:54:00,64.4,63.3,29.96,South,170,4.0,10.0,96,0.00,,,0.00,meteohub,2013-02-22 03:54:00,
2013-02-21 21:59:00,64.6,63.5,29.96,ENE,65,0.0,10.0,96,0.00,,,0.00,meteohub,2013-02-22 03:59:00,
2013-02-21 22:05:00,64.6,63.5,29.96,SSE,165,3.0,10.0,96,0.00,,,0.00,meteohub,2013-02-22 04:05:00,
2013-02-21 22:10:00,64.8,63.7,29.96,SSE,153,4.0,10.0,96,0.00,,,0.00,meteohub,2013-02-22 04:10:00,
2013-02-21 22:15:00,64.8,63.7,29.96,SE,132,5.0,10.0,96,0.00,,,0.00,meteohub,2013-02-22 04:15:00,
2013-02-21 22:20:00,64.8,63.7,29.96,SE,132,2.0,8.0,96,0.00,,,0.00,meteohub,2013-02-22 04:20:00,
2013-02-21 22:25:00,64.9,63.9,29.96,SE,134,6.0,11.0,96,0.00,,,0.00,meteohub,2013-02-22 04:25:00,
2013-02-21 22:30:00,64.9,63.9,29.96,SSE,165,4.0,11.0,96,0.00,,,0.00,meteohub,2013-02-22 04:30:00,
2013-02-21 22:35:00,64.9,63.9,29.96,SSE,155,1.0,11.0,96,0.00,,,0.00,meteohub,2013-02-22 04:35:00,
2013-02-21 22:40:00,64.9,63.9,29.96,SE,136,1.0,11.0,96,0.00,,,0.00,meteohub,2013-02-22 04:40:00,
2013-02-21 22:45:00,65.1,64.0,29.96,SE,134,4.0,11.0,96,0.00,,,0.00,meteohub,2013-02-22 04:45:00,
2013-02-21 22:50:00,65.1,64.0,29.96,SSE,148,1.0,9.0,96,0.00,,,0.00,meteohub,2013-02-22 04:50:00,
2013-02-21 22:55:00,65.1,64.0,29.96,SE,136,6.0,9.0,96,0.00,,,0.00,meteohub,2013-02-22 04:55:00,
2013-02-21 23:00:00,65.3,64.0,29.96,SE,130,5.0,8.0,96,0.00,,,0.00,meteohub,2013-02-22 05:00:00,
2013-02-21 23:05:00,65.5,64.2,29.96,SE,128,2.0,9.0,96,0.00,,,0.00,meteohub,2013-02-22 05:05:00,
2013-02-21 23:11:00,65.5,64.2,29.96,SE,134,7.0,8.0,96,0.00,,,0.00,meteohub,2013-02-22 05:11:00,
2013-02-21 23:15:00,65.7,64.4,29.95,SE,134,4.0,9.0,96,0.00,,,0.00,meteohub,2013-02-22 05:15:00,
2013-02-21 23:21:00,65.7,64.4,29.95,ESE,115,3.0,9.0,96,0.00,,,0.00,meteohub,2013-02-22 05:21:00,
2013-02-21 23:26:00,65.7,64.4,29.95,SSE,156,4.0,9.0,96,0.00,,,0.00,meteohub,2013-02-22 05:26:00,
2013-02-21 23:31:00,65.7,64.4,29.95,ESE,105,4.0,9.0,96,0.00,,,0.00,meteohub,2013-02-22 05:31:00,
2013-02-21 23:36:00,65.7,64.4,29.95,ESE,113,2.0,9.0,96,0.00,,,0.00,meteohub,2013-02-22 05:36:00,
2013-02-21 23:41:00,65.7,64.4,29.96,SE,132,4.0,9.0,96,0.00,,,0.00,meteohub,2013-02-22 05:41:00,
2013-02-21 23:46:00,65.8,64.6,29.96,SSE,153,1.0,9.0,96,0.00,,,0.00,meteohub,2013-02-22 05:46:00,
2013-02-21 23:51:00,65.8,64.6,29.96,SE,126,1.0,8.0,96,0.00,,,0.00,meteohub,2013-02-22 05:51:00,
2013-02-21 23:56:00,65.8,64.6,29.95,SE,126,1.0,8.0,96,0.00,,,0.00,meteohub,2013-02-22 05:56:00,